KLGB/LGB METAR and TAF weather

Enter ICAO airport designator
Station Type Date Time Source
KLGB METAR 2019/10/15 02:53 UTC NOAA

KLGB 150253Z 30006KT 10SM CLR 19/13 A2994 RMK AO2 SLP137 T01890133 53013 $


Station Type Date Time Source
KLGB Decoded METAR 2019/10/15 02:53 UTC NOAA

LONG BEACH AIRPORT, CA, United States (KLGB) 33-49N 118-09W 10M
Oct 14, 2019 - 10:53 PM EDT / 2019.10.15 0253 UTC
Wind: from the WNW (300 degrees) at 7 MPH (6 KT):0
Visibility: 10 mile(s):0
Sky conditions: clear
Temperature: 66.0 F (18.9 C)
Dew Point: 55.9 F (13.3 C)
Relative Humidity: 69%
Pressure (altimeter): 29.94 in. Hg (1013 hPa)
Pressure tendency: 0.04 inches (1.3 hPa) higher than three hours ago
ob: KLGB 150253Z 30006KT 10SM CLR 19/13 A2994 RMK AO2 SLP137 T01890133 53013
cycle: 3

Station Type Date Time Source
KLGB TAF 2019/10/14 18:39 UTC NOAA

TAF KLGB 141737Z 1418/1518 00000KT P6SM SCT029
FM142000 19008KT P6SM SCT030
FM142300 30008KT P6SM SKC
FM150400 VRB03KT P6SM SKC
FM150800 VRB03KT P6SM BKN010
FM151600 17005KT P6SM SCT012

Example: see airport list